Time;durP1;ratioP1;P1;durP2;ratioP2;P2;SDS_P1;SDS_P2;PMS_P1;PMS_P2;Temp;Humidity;BMP_temperature;BMP_pressure;BME280_temperature;BME280_humidity;BME280_pressure;Samples;Min_cycle;Max_cycle;Signal;HPM_P1;HPM_P2
2021/11/25 00:02:00;;;;;;;;;134.00;103.00;;;;;-4.38;100.00;100157.38;6285258;20;3697079;-46
2021/11/25 00:04:30;;;;;;;;;121.33;106.00;;;;;-4.44;100.00;100152.97;6281817;20;3683530;-49
2021/11/25 00:07:00;;;;;;;;;140.67;112.67;;;;;-4.03;100.00;100154.94;6277205;20;3715966;-50
2021/11/25 00:09:30;;;;;;;;;119.67;90.33;;;;;-4.46;100.00;100152.06;6278943;20;3697114;-46
2021/11/25 00:12:00;;;;;;;;;121.67;89.00;;;;;-4.81;100.00;100142.22;6280690;20;3690859;-48
2021/11/25 00:14:27;;;;;;;;;69.50;57.00;;;;;-4.86;100.00;100147.41;6277433;20;2502439;-50
2021/11/25 00:16:57;;;;;;;;;135.00;105.67;;;;;-4.87;100.00;100142.16;6277638;20;3713767;-46
2021/11/25 00:19:27;;;;;;;;;147.33;116.67;;;;;-4.77;100.00;100153.59;6277854;20;3712799;-46
2021/11/25 00:21:57;;;;;;;;;137.67;102.00;;;;;-4.88;100.00;100148.25;6280898;20;3704382;-44
2021/11/25 00:24:27;;;;;;;;;123.00;98.00;;;;;-5.05;100.00;100152.47;6278480;20;3698147;-47
2021/11/25 00:26:57;;;;;;;;;120.33;104.00;;;;;-4.78;100.00;100147.47;6279785;20;3699382;-46
2021/11/25 00:29:26;;;;;;;;;138.67;99.33;;;;;-5.05;100.00;100136.75;6280355;20;3715859;-47
2021/11/25 00:31:56;;;;;;;;;124.00;92.33;;;;;-5.20;100.00;100146.25;6279424;20;3688918;-47
2021/11/25 00:34:26;;;;;;;;;115.67;83.00;;;;;-4.48;100.00;100148.56;6280178;20;3684669;-46
2021/11/25 00:36:56;;;;;;;;;110.67;82.67;;;;;-4.47;100.00;100139.84;6278270;20;3684618;-50
2021/11/25 00:39:26;;;;;;;;;125.33;95.33;;;;;-4.44;100.00;100151.22;6276631;20;3689911;-48
2021/11/25 00:41:56;;;;;;;;;129.33;94.67;;;;;-5.03;100.00;100153.38;6280207;20;3698167;-48
2021/11/25 00:44:26;;;;;;;;;129.67;96.67;;;;;-4.83;100.00;100148.31;6278328;20;3710688;-46
2021/11/25 00:46:55;;;;;;;;;123.67;90.00;;;;;-5.05;100.00;100149.84;6277676;20;3696170;-47
2021/11/25 00:49:26;;;;;;;;;120.33;99.67;;;;;-4.59;100.00;100151.09;6277017;20;3707543;-48
2021/11/25 00:51:56;;;;;;;;;114.67;82.00;;;;;-4.46;100.00;100147.69;6279724;20;3690992;-47
2021/11/25 00:54:28;;;;;;;;;116.00;85.00;;;;;-4.48;100.00;100144.19;6275812;20;3709569;-46
2021/11/25 00:56:57;;;;;;;;;118.00;87.67;;;;;-4.65;100.00;100130.97;6310856;20;3689838;-47
2021/11/25 00:59:26;;;;;;;;;108.00;76.00;;;;;-4.13;100.00;100135.69;6276206;20;2797572;-45
2021/11/25 01:01:56;;;;;;;;;112.67;82.67;;;;;-3.91;100.00;100147.13;6278940;20;3690990;-47
2021/11/25 01:04:26;;;;;;;;;112.00;85.00;;;;;-4.15;100.00;100136.53;6310751;20;3687882;-47
2021/11/25 01:06:56;;;;;;;;;108.33;83.67;;;;;-3.62;100.00;100136.75;6284509;20;3685694;-46
2021/11/25 01:09:26;;;;;;;;;114.00;86.00;;;;;-3.45;100.00;100136.81;6280718;20;3690933;-46
2021/11/25 01:12:01;;;;;;;;;111.67;85.00;;;;;-3.02;100.00;100139.50;6283351;20;3685316;-46
2021/11/25 01:14:34;;;;;;;;;115.33;93.00;;;;;-3.12;100.00;100135.97;6282738;20;3689849;-46
2021/11/25 01:17:05;;;;;;;;;116.33;94.00;;;;;-3.49;100.00;100132.41;6282495;20;3699291;-46
2021/11/25 01:19:36;;;;;;;;;109.67;81.33;;;;;-2.94;100.00;100139.50;6280706;20;3679487;-49
2021/11/25 01:22:06;;;;;;;;;127.33;100.67;;;;;-2.75;100.00;100135.13;6284253;20;3708539;-48
2021/11/25 01:24:40;;;;;;;;;118.67;93.00;;;;;-2.87;100.00;100120.22;6284776;20;3712865;-47
2021/11/25 01:27:10;;;;;;;;;125.33;94.33;;;;;-2.96;100.00;100125.47;6282254;20;3695041;-47
2021/11/25 01:29:40;;;;;;;;;107.00;79.33;;;;;-2.93;100.00;100113.22;6284265;20;3679394;-47
2021/11/25 01:32:10;;;;;;;;;149.33;118.33;;;;;-3.07;100.00;100121.97;6280625;20;3725628;-46
2021/11/25 01:34:40;;;;;;;;;113.67;83.33;;;;;-2.67;100.00;100118.47;6284002;20;3695077;-47
2021/11/25 01:37:13;;;;;;;;;113.33;82.33;;;;;-2.68;100.00;100111.47;6281145;20;3687718;-45
2021/11/25 01:39:43;;;;;;;;;114.67;87.67;;;;;-2.80;100.00;100110.59;6282006;20;3699234;-46
2021/11/25 01:42:12;;;;;;;;;109.67;84.00;;;;;-2.58;100.00;100095.66;6283510;20;3685667;-45
2021/11/25 01:44:42;;;;;;;;;109.67;83.33;;;;;-2.76;100.00;100099.22;6282466;20;3680569;-47
2021/11/25 01:47:12;;;;;;;;;107.33;82.67;;;;;-2.88;100.00;100100.94;6282522;20;3680578;-47
2021/11/25 01:49:42;;;;;;;;;112.00;89.00;;;;;-2.90;100.00;100097.47;6281349;20;3687729;-45
2021/11/25 01:52:12;;;;;;;;;108.33;84.00;;;;;-2.70;100.00;100093.94;6281052;20;3692925;-47
2021/11/25 01:54:42;;;;;;;;;105.33;80.00;;;;;-2.65;100.00;100093.06;6281899;20;3682721;-46
2021/11/25 01:57:12;;;;;;;;;102.67;76.00;;;;;-2.62;100.00;100089.53;6280825;20;3672097;-46
2021/11/25 01:59:42;;;;;;;;;109.67;81.33;;;;;-2.51;100.00;100086.91;6312435;20;3680402;-49
2021/11/25 02:02:13;;;;;;;;;110.00;83.33;;;;;-2.44;100.00;100089.50;6282160;20;3689224;-46
2021/11/25 02:04:43;;;;;;;;;98.33;75.00;;;;;-2.59;100.00;100084.28;6280206;20;2897196;-47
2021/11/25 02:07:13;;;;;;;;;103.33;83.00;;;;;-2.46;100.00;100074.63;6315082;20;3669114;-46
2021/11/25 02:09:44;;;;;;;;;106.00;83.67;;;;;-2.48;100.00;100071.13;6314185;20;3686713;-46
2021/11/25 02:12:13;;;;;;;;;109.00;78.33;;;;;-2.54;100.00;100064.13;6281218;20;3686733;-49
2021/11/25 02:14:43;;;;;;;;;103.33;78.67;;;;;-2.45;100.00;100065.84;6283991;20;3673274;-47
2021/11/25 02:17:15;;;;;;;;;104.33;80.00;;;;;-2.38;100.00;100056.19;6280463;20;3671091;-46
2021/11/25 02:19:45;;;;;;;;;100.33;73.67;;;;;-2.22;100.00;100057.88;6314043;20;3669006;-47
2021/11/25 02:22:14;;;;;;;;;109.67;81.67;;;;;-2.36;100.00;100052.69;6312636;20;3687970;-48
2021/11/25 02:24:45;;;;;;;;;108.00;81.50;;;;;-2.12;100.00;100048.22;6278758;20;3570038;-48
2021/11/25 02:27:20;;;;;;;;;108.67;78.67;;;;;-2.01;100.00;100056.94;6314000;20;3695049;-48
2021/11/25 02:29:51;;;;;;;;;109.33;91.33;;;;;-2.06;100.00;100046.41;6282675;20;3692202;-47
2021/11/25 02:32:37;;;;;;;;;119.67;86.33;;;;;-2.17;100.00;100050.84;6281978;20;3705413;-45
2021/11/25 02:35:16;;;;;;;;;109.00;87.00;;;;;-2.03;100.00;100053.41;6281164;20;3704434;-47
2021/11/25 02:37:47;;;;;;;;;109.33;87.67;;;;;-2.11;100.00;100045.56;6281970;20;3689794;-47
2021/11/25 02:40:32;;;;;;;;;109.33;86.00;;;;;-2.05;100.00;100040.28;6279671;20;3684679;-46
2021/11/25 02:43:10;;;;;;;;;108.33;85.00;;;;;-1.81;100.00;100033.16;6279341;20;3682507;-46
2021/11/25 02:45:53;;;;;;;;;110.00;82.33;;;;;-1.86;100.00;100030.53;6280312;20;3682594;-49
2021/11/25 02:48:41;;;;;;;;;109.33;87.67;;;;;-1.85;100.00;100029.66;6278447;20;3695051;-50
2021/11/25 02:51:16;;;;;;;;;110.33;83.67;;;;;-1.68;100.00;100023.44;6282963;20;3690848;-46
2021/11/25 02:53:47;;;;;;;;;109.00;85.67;;;;;-1.87;100.00;100022.63;6282944;20;3687795;-47
2021/11/25 02:56:22;;;;;;;;;101.33;78.67;;;;;-1.96;100.00;100022.72;6280876;20;3661756;-45
2021/11/25 02:58:56;;;;;;;;;106.00;80.67;;;;;-1.75;100.00;100017.31;6314323;20;3685755;-49
2021/11/25 03:01:36;;;;;;;;;109.00;83.00;;;;;-1.70;100.00;100015.53;6281039;20;3684762;-48
2021/11/25 03:04:09;;;;;;;;;106.67;83.33;;;;;-1.88;100.00;100011.25;6282257;20;3685738;-48
2021/11/25 03:06:39;;;;;;;;;102.33;76.00;;;;;-1.51;100.00;100000.47;6280042;20;3668961;-50
2021/11/25 03:09:09;;;;;;;;;108.00;84.00;;;;;-1.61;100.00;99999.66;6310806;20;3688773;-49
2021/11/25 03:11:39;;;;;;;;;111.00;83.67;;;;;-1.75;100.00;99996.25;6282557;20;3691880;-46
2021/11/25 03:14:10;;;;;;;;;101.67;78.33;;;;;-1.71;100.00;99999.72;6282447;20;3685642;-47
2021/11/25 03:16:40;;;;;;;;;93.67;71.00;;;;;-1.69;100.00;99990.06;6281342;20;3663841;-47
2021/11/25 03:19:12;;;;;;;;;103.00;80.33;;;;;-1.48;100.00;99986.41;6313717;20;3689791;-47
2021/11/25 03:21:42;;;;;;;;;128.67;108.00;;;;;-1.87;100.00;99991.97;6281997;20;3691896;-46
2021/11/25 03:24:12;;;;;;;;;104.33;81.00;;;;;-1.72;100.00;99980.44;6281417;20;3689796;-47
2021/11/25 03:26:41;;;;;;;;;106.33;80.67;;;;;-1.93;100.00;99972.69;6280360;20;3688831;-47
2021/11/25 03:29:15;;;;;;;;;97.00;72.67;;;;;-1.47;100.00;99969.75;6279170;20;3659758;-46
2021/11/25 03:31:45;;;;;;;;;106.67;75.33;;;;;-1.60;100.00;99964.56;6313921;20;3674205;-45
2021/11/25 03:34:15;;;;;;;;;101.33;74.33;;;;;-1.43;100.00;99961.78;6279083;20;3655884;-49
2021/11/25 03:36:44;;;;;;;;;99.00;78.67;;;;;-1.70;100.00;99957.63;6312024;20;3644401;-47
2021/11/25 03:39:15;;;;;;;;;239.75;201.75;;;;;-1.78;100.00;99954.19;6312088;20;3729506;-46
2021/11/25 03:41:45;;;;;;;;;208.67;167.67;;;;;-1.80;100.00;99961.19;6278708;20;3711849;-50
2021/11/25 03:44:15;;;;;;;;;99.33;75.00;;;;;-1.67;100.00;99956.72;6280814;20;3664964;-47
2021/11/25 03:46:45;;;;;;;;;102.33;77.67;;;;;-1.52;100.00;99956.59;6312809;20;3674375;-49
2021/11/25 03:49:14;;;;;;;;;99.33;75.33;;;;;-1.42;100.00;99946.84;6278863;20;3671221;-46
2021/11/25 03:51:44;;;;;;;;;105.67;78.33;;;;;-1.26;100.00;99948.47;6280645;20;3682673;-49
2021/11/25 03:54:14;;;;;;;;;107.67;78.33;;;;;-1.71;100.00;99945.34;6280093;20;3684589;-46
2021/11/25 03:56:44;;;;;;;;;100.67;80.00;;;;;-1.52;100.00;99937.31;6279395;20;3660655;-46
2021/11/25 03:59:13;;;;;;;;;102.67;79.67;;;;;-1.12;100.00;99930.75;6309798;20;3679431;-46
2021/11/25 04:01:43;;;;;;;;;107.33;87.00;;;;;-1.60;100.00;99932.09;6277371;20;3696188;-45
2021/11/25 04:04:13;;;;;;;;;108.67;81.67;;;;;-1.23;100.00;99927.38;6281389;20;3685779;-48
2021/11/25 04:06:43;;;;;;;;;103.33;78.00;;;;;-1.34;100.00;99930.13;6278777;20;3679457;-46
2021/11/25 04:09:13;;;;;;;;;103.67;71.67;;;;;-1.69;100.00;99933.03;6279058;20;3679395;-45
2021/11/25 04:11:43;;;;;;;;;102.33;74.67;;;;;-1.16;100.00;99923.81;6280277;20;3680403;-48
2021/11/25 04:14:13;;;;;;;;;102.67;73.33;;;;;-1.14;100.00;99914.09;6280014;20;3683609;-45
2021/11/25 04:16:42;;;;;;;;;100.67;73.00;;;;;-1.32;100.00;99919.53;6279721;20;3647471;-48
2021/11/25 04:19:12;;;;;;;;;102.00;74.00;;;;;-1.25;100.00;99921.25;6310419;20;3686700;-47
2021/11/25 04:21:42;;;;;;;;;107.00;80.33;;;;;-1.25;100.00;99923.00;6276542;20;3692963;-52
2021/11/25 04:24:12;;;;;;;;;92.67;71.67;;;;;-1.04;100.00;99919.28;6277270;20;2897315;-48
2021/11/25 04:26:42;;;;;;;;;104.33;80.33;;;;;-1.08;100.00;99914.91;6309573;20;3674356;-47
2021/11/25 04:29:12;;;;;;;;;102.67;77.33;;;;;-1.24;100.00;99915.06;6277681;20;3668606;-46
2021/11/25 04:37:20;;;;;;;;;103.00;75.33;;;;;-1.18;100.00;99899.22;6277661;20;3683594;-45
2021/11/25 04:39:50;;;;;;;;;103.33;77.33;;;;;-1.50;100.00;99901.28;6278660;20;3674250;-45
2021/11/25 04:42:20;;;;;;;;;102.67;74.33;;;;;-1.31;100.00;99900.25;6284068;20;3666880;-48
2021/11/25 04:44:50;;;;;;;;;109.33;87.67;;;;;-1.03;100.00;99902.56;6319061;20;3696059;-45
2021/11/25 04:47:20;;;;;;;;;99.00;71.00;;;;;-1.12;100.00;99903.56;6283519;20;3663760;-50
2021/11/25 04:49:49;;;;;;;;;92.00;69.33;;;;;-0.90;100.00;99893.63;6314441;20;3652397;-48
2021/11/25 04:52:19;;;;;;;;;103.00;76.00;;;;;-0.82;100.00;99889.13;6316962;20;3695001;-50
2021/11/25 04:54:49;;;;;;;;;104.00;76.67;;;;;-1.12;100.00;99891.25;6286296;20;3674219;-48
2021/11/25 04:57:19;;;;;;;;;103.00;80.00;;;;;-0.89;100.00;99884.84;6279390;20;3684593;-50
2021/11/25 04:59:49;;;;;;;;;101.00;75.67;;;;;-0.88;100.00;99881.31;6281176;20;3664822;-47
2021/11/25 05:02:18;;;;;;;;;95.00;70.67;;;;;-1.14;100.00;99885.13;6282777;20;3654425;-48
2021/11/25 05:04:47;;;;;;;;;104.00;76.00;;;;;-1.13;100.00;99870.22;6315533;20;2788840;-46
2021/11/25 05:07:17;;;;;;;;;102.33;80.00;;;;;-1.04;100.00;99883.25;6285303;20;3662895;-45
2021/11/25 05:09:47;;;;;;;;;96.00;73.33;;;;;-0.86;100.00;99874.28;6279411;20;3656499;-46
2021/11/25 05:12:16;;;;;;;;;102.33;74.67;;;;;-0.88;100.00;99868.13;6317004;20;3678397;-48
2021/11/25 05:14:46;;;;;;;;;102.33;72.00;;;;;-0.98;100.00;99877.03;6316585;20;3661721;-50
2021/11/25 05:17:20;;;;;;;;;104.00;73.33;;;;;-0.97;100.00;99868.28;6283282;20;3682528;-45
2021/11/25 05:19:50;;;;;;;;;95.33;71.33;;;;;-0.89;100.00;99866.41;6283393;20;3641879;-47
2021/11/25 05:22:20;;;;;;;;;105.33;73.00;;;;;-0.98;100.00;99874.41;6312439;20;3675204;-48
2021/11/25 05:24:49;;;;;;;;;101.67;73.33;;;;;-0.88;100.00;99866.38;6285492;20;3679419;-46
2021/11/25 05:27:17;;;;;;;;;81.00;63.00;;;;;-1.08;100.00;99859.59;6276083;20;2500273;-48
2021/11/25 05:29:47;;;;;;;;;107.33;79.33;;;;;-0.34;100.00;99868.31;6283457;20;3692157;-46
2021/11/25 05:32:17;;;;;;;;;99.00;72.33;;;;;-0.93;100.00;99867.31;6283312;20;3658591;-47
2021/11/25 05:34:47;;;;;;;;;95.67;72.33;;;;;-1.01;100.00;99870.03;6316645;20;3650321;-46
2021/11/25 05:37:18;;;;;;;;;95.33;72.00;;;;;-0.53;100.00;99870.31;6314060;20;3634633;-46
2021/11/25 05:39:49;;;;;;;;;106.25;85.75;;;;;-0.55;100.00;99868.63;6313538;20;3692021;-48
2021/11/25 05:42:19;;;;;;;;;97.00;72.33;;;;;-0.86;100.00;99863.72;6315176;20;3659752;-46
2021/11/25 05:44:48;;;;;;;;;91.67;70.00;;;;;-0.81;100.00;99864.53;6315962;20;3642969;-49
2021/11/25 05:47:19;;;;;;;;;98.33;73.33;;;;;-0.61;100.00;99868.69;6285851;20;3666914;-46
2021/11/25 05:49:49;;;;;;;;;104.33;75.00;;;;;-0.49;100.00;99863.25;6313525;20;3689885;-46
2021/11/25 05:52:19;;;;;;;;;96.33;72.67;;;;;-0.74;100.00;99858.31;6282695;20;3660651;-45
2021/11/25 05:54:49;;;;;;;;;95.33;69.33;;;;;-0.61;100.00;99856.34;6314921;20;3647234;-46
2021/11/25 05:57:19;;;;;;;;;97.00;72.00;;;;;-0.68;100.00;99860.88;6312771;20;3657525;-49
2021/11/25 05:59:48;;;;;;;;;96.00;72.33;;;;;-0.50;100.00;99862.38;6315144;20;3657977;-46
2021/11/25 06:02:20;;;;;;;;;90.67;69.00;;;;;-0.71;100.00;99860.00;6312816;20;3648588;-49
2021/11/25 06:04:50;;;;;;;;;95.33;71.67;;;;;-0.56;100.00;99869.50;6316009;20;3639802;-46
2021/11/25 06:07:20;;;;;;;;;104.67;77.00;;;;;-0.62;100.00;99866.94;6315213;20;3686691;-45
2021/11/25 06:09:49;;;;;;;;;98.33;72.67;;;;;-0.68;100.00;99858.22;6282811;20;3645048;-47
2021/11/25 06:12:19;;;;;;;;;95.67;70.67;;;;;-0.70;100.00;99853.88;6315400;20;3655423;-47
2021/11/25 06:14:54;;;;;;;;;87.00;68.00;;;;;-0.67;100.00;99859.97;6316255;20;2878492;-46
2021/11/25 06:17:24;;;;;;;;;98.67;71.67;;;;;-0.44;100.00;99853.50;6312171;20;3663747;-47
2021/11/25 06:19:54;;;;;;;;;99.67;72.67;;;;;-0.52;100.00;99858.03;6281779;20;3669030;-46
2021/11/25 06:22:25;;;;;;;;;101.00;73.00;;;;;-0.22;100.00;99851.41;6314200;20;3675243;-47
2021/11/25 06:24:55;;;;;;;;;97.67;74.33;;;;;-0.19;100.00;99856.66;6281953;20;2895192;-45
2021/11/25 06:27:24;;;;;;;;;92.00;67.33;;;;;-0.45;100.00;99849.09;6314184;20;3660633;-45
2021/11/25 06:29:54;;;;;;;;;97.33;74.00;;;;;-0.09;100.00;99852.09;6313796;20;3650211;-50
2021/11/25 06:32:23;;;;;;;;;103.33;74.00;;;;;0.17;100.00;99849.91;6314079;20;3681502;-46
2021/11/25 06:34:53;;;;;;;;;92.67;69.33;;;;;-0.42;100.00;99849.09;6283025;20;3659617;-48
2021/11/25 06:37:23;;;;;;;;;103.00;81.33;;;;;-0.08;100.00;99840.66;6315574;20;3662710;-45
2021/11/25 06:39:53;;;;;;;;;99.00;70.00;;;;;-0.41;100.00;99850.81;6278083;20;3660625;-46
2021/11/25 06:42:22;;;;;;;;;100.67;70.67;;;;;-0.47;100.00;99843.88;6313524;20;3670007;-46
2021/11/25 06:44:52;;;;;;;;;95.67;72.00;;;;;-0.38;100.00;99845.50;6312581;20;3640863;-46
2021/11/25 06:47:21;;;;;;;;;97.00;72.00;;;;;-0.29;100.00;99845.38;6314267;20;3656490;-47
2021/11/25 06:49:51;;;;;;;;;99.67;74.00;;;;;-0.20;100.00;99839.09;6309077;20;3664191;-49
2021/11/25 06:52:21;;;;;;;;;98.00;68.33;;;;;-0.37;100.00;99847.25;6282206;20;3658560;-46
2021/11/25 06:54:50;;;;;;;;;93.33;70.00;;;;;-0.19;100.00;99839.94;6314549;20;3655429;-48
2021/11/25 06:57:20;;;;;;;;;99.67;75.00;;;;;-0.22;100.00;99823.25;6314231;20;3664295;-49
2021/11/25 06:59:50;;;;;;;;;98.00;72.33;;;;;-0.04;100.00;99843.22;6312906;20;3654376;-48
2021/11/25 07:02:19;;;;;;;;;105.00;73.00;;;;;-0.21;100.00;99840.00;6278858;20;3672109;-47
2021/11/25 07:04:49;;;;;;;;;92.00;66.33;;;;;-0.10;100.00;99842.47;6279121;20;3643046;-48
2021/11/25 07:07:19;;;;;;;;;97.33;69.00;;;;;-0.11;100.00;99844.19;6315943;20;3651351;-48
2021/11/25 07:09:48;;;;;;;;;97.67;70.33;;;;;0.14;100.00;99839.41;6311529;20;3671084;-46
2021/11/25 07:12:18;;;;;;;;;111.00;95.00;;;;;0.19;100.00;99837.56;6314355;20;3665963;-46
2021/11/25 07:14:47;;;;;;;;;81.00;65.50;;;;;0.20;100.00;99834.00;6282578;20;2865018;-49
2021/11/25 07:17:17;;;;;;;;;94.67;70.33;;;;;0.11;100.00;99844.75;6278909;20;3651285;-46
2021/11/25 07:19:46;;;;;;;;;104.67;77.00;;;;;0.35;100.00;99834.66;6311790;20;3688798;-48
2021/11/25 07:22:16;;;;;;;;;98.67;72.33;;;;;0.10;100.00;99840.34;6280446;20;3651311;-47
2021/11/25 07:24:46;;;;;;;;;90.33;70.00;;;;;0.16;100.00;99845.53;6314967;20;3638808;-48
2021/11/25 07:27:16;;;;;;;;;99.33;71.00;;;;;0.09;100.00;99841.25;6313206;20;3673177;-49
2021/11/25 07:29:45;;;;;;;;;90.00;66.33;;;;;0.03;100.00;99835.19;6279304;20;3658538;-49
2021/11/25 07:32:15;;;;;;;;;84.00;66.33;;;;;0.27;100.00;99832.16;6312891;20;3637731;-50
2021/11/25 07:34:44;;;;;;;;;88.00;68.67;;;;;0.11;100.00;99834.19;6311432;20;3630435;-51
2021/11/25 07:37:14;;;;;;;;;84.00;64.00;;;;;0.19;100.00;99831.41;6313400;20;3637768;-46
2021/11/25 07:39:44;;;;;;;;;93.67;65.00;;;;;0.25;100.00;99833.94;6312714;20;3655844;-47
2021/11/25 07:42:14;;;;;;;;;105.00;75.00;;;;;0.20;100.00;99827.88;6312266;20;3694001;-48
2021/11/25 07:44:44;;;;;;;;;78.67;60.67;;;;;0.35;100.00;99821.47;6281313;20;2875309;-47
2021/11/25 07:47:20;;;;;;;;;93.00;68.67;;;;;0.47;100.00;99821.22;6313253;20;3681543;-50
2021/11/25 07:49:50;;;;;;;;;91.33;66.33;;;;;0.41;100.00;99811.63;6310430;20;3653415;-50
2021/11/25 07:52:19;;;;;;;;;88.67;66.00;;;;;0.32;100.00;99810.97;6313473;20;3634657;-48
2021/11/25 07:54:49;;;;;;;;;89.33;66.33;;;;;0.71;100.00;99804.06;6311462;20;3639945;-49
2021/11/25 07:57:19;;;;;;;;;91.67;65.67;;;;;0.67;100.00;99809.44;6313490;20;3657560;-46
2021/11/25 07:59:48;;;;;;;;;86.33;61.33;;;;;0.63;100.00;99801.56;6310456;20;3660736;-46
2021/11/25 08:02:19;;;;;;;;;95.00;71.33;;;;;0.45;100.00;99799.28;6312959;20;3661719;-48
2021/11/25 08:04:52;;;;;;;;;1265.25;821.13;;;;;0.54;100.00;99807.00;6188757;20;7617815;-46
2021/11/25 08:07:20;;;;;;;;;506.75;393.25;;;;;0.38;100.00;99801.13;6236576;20;4510670;-45
2021/11/25 08:09:48;;;;;;;;;150.00;115.50;;;;;0.46;100.00;99794.84;6268665;20;1956623;-46
2021/11/25 08:12:21;;;;;;;;;96.00;72.33;;;;;0.60;100.00;99791.03;6282638;20;3647208;-49
2021/11/25 08:14:51;;;;;;;;;104.00;75.33;;;;;0.76;100.00;99790.72;6310675;20;3673248;-47
2021/11/25 08:17:20;;;;;;;;;179.00;147.50;;;;;0.70;100.00;99785.59;6281512;20;4479384;-48
2021/11/25 08:19:50;;;;;;;;;114.67;88.67;;;;;0.68;100.00;99785.59;6276667;20;3695048;-49
2021/11/25 08:22:20;;;;;;;;;109.33;86.00;;;;;0.59;100.00;99789.31;6279252;20;3703372;-48
2021/11/25 08:24:50;;;;;;;;;89.67;66.67;;;;;0.46;100.00;99789.56;6281768;20;3648217;-50
2021/11/25 08:27:20;;;;;;;;;100.33;72.00;;;;;0.73;100.00;99788.16;6308554;20;3675406;-48
2021/11/25 08:29:49;;;;;;;;;94.33;71.00;;;;;0.77;100.00;99782.78;6310150;20;3658602;-47
2021/11/25 08:32:20;;;;;;;;;100.33;77.67;;;;;0.93;100.00;99786.00;6277550;20;3655470;-45
2021/11/25 08:34:50;;;;;;;;;96.33;72.00;;;;;0.63;100.00;99769.88;6312941;20;3640877;-45
2021/11/25 08:37:20;;;;;;;;;106.50;78.25;;;;;0.93;100.00;99772.78;6314556;20;4438758;-48
2021/11/25 08:39:51;;;;;;;;;164.50;135.25;;;;;1.12;100.00;99772.38;6312139;20;3707607;-48
2021/11/25 08:42:20;;;;;;;;;168.75;133.75;;;;;1.26;100.00;99760.59;6312625;20;4501399;-46
2021/11/25 08:44:51;;;;;;;;;116.50;91.00;;;;;0.96;100.00;99758.63;6277790;20;3706542;-44
2021/11/25 08:47:20;;;;;;;;;177.00;134.50;;;;;1.28;100.00;99749.97;6307098;20;1951306;-48
2021/11/25 08:49:51;;;;;;;;;112.50;91.75;;;;;1.06;100.00;99745.16;6277908;20;3674189;-47
2021/11/25 08:52:21;;;;;;;;;102.67;80.33;;;;;1.02;100.00;99739.97;6312005;20;3694016;-48
2021/11/25 08:54:50;;;;;;;;;104.00;76.00;;;;;1.19;100.00;99743.13;6279381;20;3679404;-49
2021/11/25 08:57:20;;;;;;;;;90.67;66.67;;;;;1.04;100.00;99746.97;6277892;20;3645042;-45
2021/11/25 08:59:50;;;;;;;;;137.33;112.67;;;;;1.16;100.00;99732.63;6306373;20;3715872;-46
2021/11/25 09:02:20;;;;;;;;;110.00;90.67;;;;;1.16;100.00;99735.25;6281610;20;3681533;-48
2021/11/25 09:04:50;;;;;;;;;102.50;77.50;;;;;1.10;100.00;99736.25;6279487;20;4435719;-45
2021/11/25 09:07:20;;;;;;;;;106.67;81.33;;;;;1.08;100.00;99727.50;6312849;20;3690973;-46
2021/11/25 09:09:48;;;;;;;;;135.50;109.50;;;;;1.33;100.00;99728.72;6271251;20;1953413;-45
2021/11/25 09:12:18;;;;;;;;;132.33;117.33;;;;;1.35;100.00;99730.41;6281427;20;3709624;-45
2021/11/25 09:15:08;;;;;;;;;105.00;82.67;;;;;1.31;100.00;99723.44;6279385;20;3690870;-46
2021/11/25 09:17:39;;;;;;;;;147.25;129.25;;;;;1.34;100.00;99710.16;6278298;20;3709909;-47
2021/11/25 09:20:31;;;;;;;;;256.25;206.75;;;;;1.58;100.00;99699.88;6311793;20;4485664;-47
2021/11/25 09:23:05;;;;;;;;;177.50;147.50;;;;;1.82;100.00;99701.03;6274661;20;4493936;-47
2021/11/25 09:25:41;;;;;;;;;164.50;133.00;;;;;2.00;100.00;99695.25;6279416;20;4488794;-45
2021/11/25 09:28:18;;;;;;;;;108.67;93.00;;;;;2.26;100.00;99686.59;6283961;20;3680429;-45
2021/11/25 09:30:49;;;;;;;;;131.00;100.50;;;;;1.77;100.00;99682.66;6285792;20;4487707;-47
2021/11/25 09:33:20;;;;;;;;;120.00;95.00;;;;;1.98;100.00;99682.06;6283064;20;3703524;-45
2021/11/25 09:35:50;;;;;;;;;114.00;91.00;;;;;2.06;100.00;99683.66;6284784;20;3703377;-44
2021/11/25 09:38:20;;;;;;;;;183.50;137.00;;;;;1.88;100.00;99677.94;6274315;20;1958605;-48
2021/11/25 09:40:50;;;;;;;;;106.33;79.67;;;;;2.22;100.00;99679.69;6282145;20;3691984;-46
2021/11/25 09:43:21;;;;;;;;;103.33;81.67;;;;;2.05;100.00;99676.59;6280891;20;3700250;-46
2021/11/25 09:45:52;;;;;;;;;96.00;71.00;;;;;2.57;100.00;99673.38;6283381;20;3656484;-46
2021/11/25 09:48:27;;;;;;;;;95.00;69.00;;;;;2.22;100.00;99669.09;6314825;20;3666887;-44
2021/11/25 09:50:57;;;;;;;;;97.33;71.67;;;;;2.17;100.00;99665.69;6283405;20;3656552;-48
2021/11/25 09:53:29;;;;;;;;;98.00;71.00;;;;;2.30;100.00;99667.09;6281421;20;3672174;-49
2021/11/25 09:55:59;;;;;;;;;84.00;64.00;;;;;2.60;100.00;99654.72;6284134;20;2861730;-47
2021/11/25 09:58:32;;;;;;;;;96.00;71.33;;;;;2.65;100.00;99651.94;6282976;20;3652418;-48
2021/11/25 10:01:12;;;;;;;;;86.67;61.67;;;;;2.92;100.00;99652.88;6316357;20;3668003;-47
2021/11/25 10:03:48;;;;;;;;;95.67;71.67;;;;;2.99;100.00;99648.25;6315900;20;3666998;-44
2021/11/25 10:06:23;;;;;;;;;95.67;79.67;;;;;2.97;100.00;99655.38;6278462;20;3644002;-45
2021/11/25 10:08:54;;;;;;;;;152.50;122.00;;;;;3.34;100.00;99643.59;6316073;20;4493995;-45
2021/11/25 10:11:37;;;;;;;;;118.00;96.00;;;;;3.27;98.98;99632.34;6283798;20;3704374;-45
2021/11/25 10:14:15;;;;;;;;;96.00;75.00;;;;;2.73;100.00;99634.00;6280257;20;3655444;-47
2021/11/25 10:16:50;;;;;;;;;83.50;67.50;;;;;2.74;100.00;99625.16;6284844;20;2874223;-45
2021/11/25 10:19:24;;;;;;;;;103.33;89.00;;;;;3.22;100.00;99627.19;6278489;20;3678445;-45
2021/11/25 10:22:09;;;;;;;;;103.33;80.00;;;;;3.07;100.00;99625.88;6284230;20;3680461;-45
2021/11/25 10:24:48;;;;;;;;;104.67;80.00;;;;;3.15;99.57;99622.97;6281025;20;3705519;-47
2021/11/25 10:27:27;;;;;;;;;91.33;69.00;;;;;2.98;100.00;99617.38;6279700;20;3658695;-44
2021/11/25 10:30:36;;;;;;;;;98.00;78.00;;;;;3.13;100.00;99610.69;6278294;20;3677287;-48
2021/11/25 10:33:05;;;;;;;;;112.33;92.67;;;;;3.31;99.14;99599.47;6277344;20;3683549;-49
2021/11/25 10:38:58;;;;;;;;;107.33;90.67;;;;;3.50;97.71;99591.75;6311670;20;3680414;-46
2021/11/25 10:41:31;;;;;;;;;93.33;69.67;;;;;3.21;99.00;99587.41;6284483;20;3654417;-44
2021/11/25 10:44:15;;;;;;;;;101.00;78.50;;;;;3.56;98.92;99586.25;6314438;20;3701424;-44
2021/11/25 10:47:04;;;;;;;;;111.67;91.67;;;;;3.42;98.81;99586.72;6313016;20;3690823;-44
2021/11/25 10:49:59;;;;;;;;;102.00;72.75;;;;;3.59;98.60;99582.63;6281285;20;4450289;-49
2021/11/25 10:52:42;;;;;;;;;101.33;74.33;;;;;3.62;98.59;99588.69;6314912;20;3677333;-46
2021/11/25 10:55:18;;;;;;;;;91.67;68.00;;;;;3.84;99.18;99580.81;6281887;20;3662746;-49
2021/11/25 10:58:07;;;;;;;;;94.00;69.33;;;;;3.62;99.01;99575.41;6284140;20;3652327;-47
2021/11/25 11:00:42;;;;;;;;;104.33;82.33;;;;;3.73;97.98;99567.91;6315358;20;3696043;-45
2021/11/25 11:03:29;;;;;;;;;87.00;66.33;;;;;3.73;98.99;99554.63;6282760;20;3649279;-45
2021/11/25 11:06:05;;;;;;;;;87.00;65.33;;;;;3.86;97.19;99556.88;6313194;20;3658679;-47
2021/11/25 11:08:44;;;;;;;;;88.33;67.67;;;;;3.94;97.10;99546.81;6314619;20;3655933;-49
2021/11/25 11:11:14;;;;;;;;;88.67;66.33;;;;;3.51;97.36;99543.06;6313760;20;3645006;-45
2021/11/25 11:17:15;;;;;;;;;91.00;67.00;;;;;3.90;96.75;99529.28;6313772;20;3661738;-44
2021/11/25 11:19:31;;;;;;;;;88.33;68.33;;;;;3.96;96.09;99515.78;6278163;20;3642975;-46
2021/11/25 11:22:00;;;;;;;;;88.67;67.00;;;;;3.79;96.16;99515.50;6313951;20;3645447;-47